Accueil
METAR-TAF:

METAR-TAF

Aéroports :

Aéroport de La Réunion Roland-Garros

Saint-Denis, Réunion

latitude: 20-53S, longitude: 055-31E, altitude: 21 m

Observation

Le bulletin a été fait il y a 27 minutes, à 03:30 UTC
Vent 6 kt de est/sud-est
Température 20°C
Humidité 68%
Pression 1022 hPa
Visibilité 10 km ou plus

METAR: FMEE 240330Z AUTO 12006KT 9999 SCT066/// ///TCU 20/14 Q1022 BECMG FEW030 SCT060

Heure: 07:57 (03:57 UTC)

Prévision

Le bulletin a été fait il y a 10 heures et 57 minutes, à 17:00 UTC
Prévision valable du 23 à 18 UTC au 24 à 24 UTC
Vent 8 kt de sud/sud-est
Visibilité 10 km ou plus
Quelques nuages à une hauteur de 3000 ft
Nuages épars à une hauteur de 6000 ft
Evoluant progressivement
du 24 à 05 UTC au 24 à 07 UTC
Vent 18 kt de est
Evoluant progressivement
du 24 à 13 UTC au 24 à 15 UTC
Vent 10 kt de sud-est

TAF: FMEE 231700Z 2318/2424 15008KT 9999 FEW030 SCT060 BECMG 2405/2407 08018KT BECMG 2413/2415 14010KT

Observations et prévisions météorologiques de plus de 4000 aéroports (messages METAR et TAF).

Les stations disponibles sont représentées par des disques jaunes et rouges sur la carte.

Passer la souris dessus pour voir le nom de la station.

Cliquer dessus pour voir les observations et prévisions météorologiques.

Pour changer de carte: cliquez sur les boutons verts avec une croix noire pour zoomer, sur le bouton vert avec un tiret pour effectuer un zoom arrière, ou sur les flèches vertes pour les cartes adjacentes.


METAR-TAF: